Time;durP1;ratioP1;P1;durP2;ratioP2;P2;SDS_P1;SDS_P2;PMS_P1;PMS_P2;Temp;Humidity;BMP_temperature;BMP_pressure;BME280_temperature;BME280_humidity;BME280_pressure;Samples;Min_cycle;Max_cycle;Signal;HPM_P1;HPM_P2
2023/05/01 00:01:57;;;;;;;12.70;9.45;;;;;;;6.03;76.95;101616.94;4952333;28;20226;-74
2023/05/01 00:04:26;;;;;;;11.35;8.38;;;;;;;5.95;77.02;101610.66;4955131;28;20219;-71
2023/05/01 00:06:55;;;;;;;12.20;8.77;;;;;;;6.01;77.01;101610.03;4958855;28;20274;-73
2023/05/01 00:09:27;;;;;;;12.18;8.00;;;;;;;6.12;76.02;101609.78;4955176;28;20202;-70
2023/05/01 00:11:57;;;;;;;9.25;8.13;;;;;;;6.11;75.68;101608.09;4956584;28;20212;-72
2023/05/01 00:14:26;;;;;;;11.38;7.47;;;;;;;6.00;75.97;101611.84;4956305;28;20308;-73
2023/05/01 00:16:55;;;;;;;9.52;7.63;;;;;;;6.08;75.92;101617.31;4953438;28;20195;-71
2023/05/01 00:19:24;;;;;;;9.88;8.27;;;;;;;6.10;75.27;101606.41;4951001;28;20259;-69
2023/05/01 00:21:53;;;;;;;10.25;7.95;;;;;;;6.14;75.05;101607.81;4955956;28;20584;-72
2023/05/01 00:24:22;;;;;;;13.27;8.00;;;;;;;6.09;75.38;101605.59;4956238;28;20712;-70
2023/05/01 00:26:52;;;;;;;7.97;6.97;;;;;;;6.16;74.79;101603.09;4952255;28;20208;-69
2023/05/01 00:29:22;;;;;;;12.38;7.38;;;;;;;6.20;74.57;101601.78;4951035;28;20207;-71
2023/05/01 00:31:52;;;;;;;9.25;6.85;;;;;;;6.17;74.80;101595.88;4953359;28;20199;-72
2023/05/01 00:34:21;;;;;;;11.30;6.80;;;;;;;6.13;75.04;101606.09;4951925;28;20231;-71
2023/05/01 00:36:51;;;;;;;10.30;5.95;;;;;;;6.09;74.98;101600.22;4952848;28;20363;-71
2023/05/01 00:39:20;;;;;;;11.75;5.95;;;;;;;6.10;74.81;101607.25;4952819;28;20251;-73
2023/05/01 00:41:49;;;;;;;10.75;6.30;;;;;;;6.06;75.13;101596.97;4952842;28;20537;-71
2023/05/01 00:44:17;;;;;;;14.50;7.13;;;;;;;6.09;75.05;101591.31;4954714;28;20242;-71
2023/05/01 00:46:48;;;;;;;9.90;6.53;;;;;;;5.98;75.46;101586.16;4953192;28;20209;-70
2023/05/01 00:49:17;;;;;;;8.93;7.20;;;;;;;6.03;75.33;101583.84;4960357;28;20194;-72
2023/05/01 00:51:52;;;;;;;9.35;6.50;;;;;;;6.01;75.35;101583.16;4946771;28;20222;-71
2023/05/01 00:54:22;;;;;;;15.88;7.90;;;;;;;5.89;75.75;101576.34;4956068;28;20226;-71
2023/05/01 00:56:51;;;;;;;11.43;7.85;;;;;;;5.89;75.86;101577.19;4970379;28;20214;-73
2023/05/01 00:59:20;;;;;;;8.38;6.70;;;;;;;5.88;76.16;101569.28;4974004;28;20289;-71
2023/05/01 01:01:51;;;;;;;12.23;6.80;;;;;;;5.86;76.62;101571.25;4950909;28;20760;-75
2023/05/01 01:04:24;;;;;;;11.88;7.38;;;;;;;5.93;75.99;101570.50;4973633;28;20233;-71
2023/05/01 01:07:04;;;;;;;12.02;6.95;;;;;;;5.92;76.16;101566.13;4964843;28;20187;-72
2023/05/01 01:09:42;;;;;;;9.07;5.57;;;;;;;5.95;76.18;101565.84;4956828;28;20238;-75
2023/05/01 01:12:20;;;;;;;10.80;6.70;;;;;;;5.97;75.76;101574.56;4955402;28;20254;-72
2023/05/01 01:14:55;;;;;;;9.77;7.30;;;;;;;5.81;76.53;101569.03;4961046;28;20222;-73
2023/05/01 01:17:36;;;;;;;13.43;6.82;;;;;;;5.84;77.10;101575.94;4959067;28;20213;-71
2023/05/01 01:20:25;;;;;;;14.90;7.53;;;;;;;5.74;77.61;101567.13;4952395;28;20192;-73
2023/05/01 01:23:21;;;;;;;11.23;7.15;;;;;;;5.86;76.86;101555.13;4954334;28;20206;-72
2023/05/01 01:26:07;;;;;;;8.57;6.05;;;;;;;5.95;76.18;101565.84;4977610;28;20218;-72
2023/05/01 01:28:58;;;;;;;9.50;6.57;;;;;;;5.86;76.51;101560.50;4958254;28;20297;-71
2023/05/01 01:31:40;;;;;;;8.73;6.35;;;;;;;6.03;76.00;101556.97;4958954;28;20202;-71
2023/05/01 01:34:18;;;;;;;10.10;6.90;;;;;;;5.99;75.97;101561.00;4962237;28;20281;-71
2023/05/01 01:36:55;;;;;;;8.77;6.20;;;;;;;5.90;76.29;101556.56;4959934;28;20202;-70
2023/05/01 01:39:30;;;;;;;13.95;6.97;;;;;;;5.80;77.24;101555.78;4952627;28;20215;-70
2023/05/01 01:42:00;;;;;;;12.00;7.25;;;;;;;5.83;77.24;101548.22;4956814;28;20214;-70
2023/05/01 01:44:36;;;;;;;11.18;6.25;;;;;;;5.76;77.47;101543.66;4956606;28;20230;-69
2023/05/01 01:47:08;;;;;;;11.15;7.18;;;;;;;5.84;77.14;101546.41;4962511;28;20198;-71
2023/05/01 01:49:45;;;;;;;8.82;5.63;;;;;;;5.72;77.73;101542.25;4961866;28;20350;-72
2023/05/01 01:52:17;;;;;;;10.25;6.85;;;;;;;5.77;77.61;101550.69;4957092;28;20321;-72
2023/05/01 01:54:51;;;;;;;11.32;6.32;;;;;;;5.69;78.19;101544.25;4962800;28;20309;-72
2023/05/01 01:57:23;;;;;;;10.55;6.95;;;;;;;5.77;77.90;101540.78;4963556;28;20230;-71
2023/05/01 01:59:55;;;;;;;11.52;6.50;;;;;;;5.76;77.69;101538.28;4957333;28;20626;-71
2023/05/01 02:02:26;;;;;;;8.18;6.22;;;;;;;5.81;77.57;101535.97;4951089;28;20219;-71
2023/05/01 02:04:58;;;;;;;9.82;5.70;;;;;;;5.81;77.33;101531.41;4969970;28;20232;-70
2023/05/01 02:07:31;;;;;;;7.90;5.85;;;;;;;5.66;78.73;101523.06;4957323;28;20242;-73
2023/05/01 02:10:04;;;;;;;10.00;6.53;;;;;;;5.64;78.52;101525.09;4953173;28;20651;-70
2023/05/01 02:12:35;;;;;;;8.75;6.45;;;;;;;5.66;78.46;101527.63;4954971;28;20218;-72
2023/05/01 02:15:07;;;;;;;7.13;5.72;;;;;;;5.74;78.04;101526.84;4954530;28;20294;-72
2023/05/01 02:17:37;;;;;;;12.10;6.95;;;;;;;5.73;78.21;101522.47;4955717;28;20287;-72
2023/05/01 02:20:11;;;;;;;10.57;7.07;;;;;;;5.54;78.29;101516.28;4957258;28;20250;-70
2023/05/01 02:22:41;;;;;;;9.55;7.00;;;;;;;5.49;78.95;101525.78;4958011;28;20186;-70
2023/05/01 02:25:12;;;;;;;13.30;7.10;;;;;;;5.54;78.63;101524.31;4953820;28;20314;-71
2023/05/01 02:27:47;;;;;;;8.10;6.55;;;;;;;5.48;79.09;101514.19;4951251;28;20201;-72
2023/05/01 02:30:18;;;;;;;11.25;6.32;;;;;;;5.40;79.81;101514.13;4956622;28;20237;-71
2023/05/01 02:32:47;;;;;;;9.55;6.63;;;;;;;5.36;80.14;101514.59;4954473;28;20222;-71
2023/05/01 02:35:18;;;;;;;7.70;6.13;;;;;;;5.32;80.25;101508.69;4959353;28;20234;-72
2023/05/01 02:37:47;;;;;;;18.02;9.18;;;;;;;5.29;80.28;101508.97;4954783;28;20201;-71
2023/05/01 02:40:16;;;;;;;13.98;7.68;;;;;;;5.31;80.71;101509.69;4954897;28;20222;-74
2023/05/01 02:42:48;;;;;;;13.23;7.75;;;;;;;5.31;80.86;101500.78;4968488;28;20230;-71
2023/05/01 02:45:20;;;;;;;10.20;6.72;;;;;;;5.43;81.15;101495.03;4953087;28;20227;-71
2023/05/01 02:47:52;;;;;;;10.65;7.63;;;;;;;5.46;80.63;101492.03;4968398;28;20653;-69
2023/05/01 02:50:23;;;;;;;14.77;8.15;;;;;;;5.46;79.58;101492.03;4954130;28;20199;-72
2023/05/01 02:52:53;;;;;;;14.15;8.13;;;;;;;5.43;79.06;101488.81;4952897;28;20370;-71
2023/05/01 02:55:43;;;;;;;13.18;7.75;;;;;;;5.42;78.67;101492.50;4952872;28;20214;-72
2023/05/01 02:58:16;;;;;;;13.65;8.18;;;;;;;5.50;78.25;101485.38;4954739;28;20222;-73
2023/05/01 03:00:45;;;;;;;11.93;7.07;;;;;;;5.45;78.29;101482.31;4954121;28;20262;-72
2023/05/01 03:03:15;;;;;;;7.95;6.45;;;;;;;5.49;77.36;101480.97;4953438;28;20714;-72
2023/05/01 03:05:46;;;;;;;12.15;7.47;;;;;;;5.54;76.66;101481.38;4953726;28;20194;-70
2023/05/01 03:08:16;;;;;;;8.63;6.72;;;;;;;5.47;77.19;101474.91;4956310;28;20233;-70
2023/05/01 03:10:45;;;;;;;9.70;5.80;;;;;;;5.65;75.35;101467.69;4957370;28;20193;-74
2023/05/01 03:13:13;;;;;;;18.02;7.43;;;;;;;5.61;75.69;101470.84;4957244;28;20239;-72
2023/05/01 03:15:44;;;;;;;7.03;5.72;;;;;;;5.55;75.65;101460.72;4956057;28;20402;-74
2023/05/01 03:18:12;;;;;;;16.10;6.50;;;;;;;5.59;74.92;101457.56;4969360;28;20214;-72
2023/05/01 03:20:50;;;;;;;9.45;6.30;;;;;;;5.56;75.18;101463.28;4959432;28;20190;-72
2023/05/01 03:23:20;;;;;;;7.43;5.45;;;;;;;5.68;74.29;101459.31;4951415;28;20226;-72
2023/05/01 03:25:49;;;;;;;10.93;7.15;;;;;;;5.53;74.85;101455.50;4955543;28;20199;-72
2023/05/01 03:28:17;;;;;;;7.55;5.78;;;;;;;5.68;73.87;101450.41;4954903;28;20250;-72
2023/05/01 03:30:46;;;;;;;7.43;6.03;;;;;;;5.60;73.83;101453.91;4953099;28;20203;-71
2023/05/01 03:33:15;;;;;;;11.18;6.28;;;;;;;5.78;73.63;101455.69;4953036;28;20250;-72
2023/05/01 03:35:44;;;;;;;8.77;7.63;;;;;;;5.77;73.08;101449.47;4956664;28;20200;-72
2023/05/01 03:38:15;;;;;;;12.57;6.40;;;;;;;5.76;73.17;101455.84;4956938;28;20202;-71
2023/05/01 03:41:04;;;;;;;10.52;6.00;;;;;;;5.84;72.93;101450.53;4952745;28;20210;-72
2023/05/01 03:43:56;;;;;;;12.50;5.60;;;;;;;5.82;73.09;101447.16;4940636;28;20236;-71
2023/05/01 03:46:45;;;;;;;11.65;6.15;;;;;;;5.93;72.50;101448.78;4968386;28;20222;-73
2023/05/01 03:49:21;;;;;;;6.00;5.28;;;;;;;5.90;72.76;101454.47;4954659;28;20213;-73
2023/05/01 03:51:51;;;;;;;10.52;6.80;;;;;;;6.07;72.76;101453.56;4953869;28;20220;-72
2023/05/01 03:54:21;;;;;;;9.95;6.90;;;;;;;6.35;71.52;101452.34;4957620;28;20211;-72
2023/05/01 03:57:16;;;;;;;11.50;6.22;;;;;;;6.15;72.07;101452.78;4951495;28;20211;-74
2023/05/01 03:59:46;;;;;;;10.32;6.35;;;;;;;6.12;72.37;101451.25;4955499;28;20580;-71
2023/05/01 04:02:15;;;;;;;7.63;5.07;;;;;;;6.34;72.37;101449.84;4955961;28;20184;-72
2023/05/01 04:04:46;;;;;;;7.30;5.90;;;;;;;7.31;69.03;101442.84;4967361;28;20231;-72
2023/05/01 04:07:15;;;;;;;11.13;6.15;;;;;;;8.12;65.36;101445.47;4950562;28;20203;-72
2023/05/01 04:09:48;;;;;;;9.35;6.68;;;;;;;8.59;63.56;101440.06;4955495;28;20200;-72
2023/05/01 04:12:17;;;;;;;11.00;5.95;;;;;;;9.19;61.24;101446.63;4953241;28;20226;-72
2023/05/01 04:14:47;;;;;;;11.30;6.07;;;;;;;9.52;59.82;101443.50;4955041;28;20225;-72
2023/05/01 04:17:16;;;;;;;7.78;5.70;;;;;;;9.65;58.99;101431.22;4963389;28;20201;-72
2023/05/01 04:19:46;;;;;;;9.02;6.45;;;;;;;10.09;57.54;101440.25;4955388;28;20281;-73
2023/05/01 04:22:16;;;;;;;7.93;5.72;;;;;;;10.62;56.27;101446.41;4962794;28;20197;-71
2023/05/01 04:24:46;;;;;;;9.52;6.18;;;;;;;11.66;53.15;101443.13;4961701;28;20231;-71
2023/05/01 04:27:16;;;;;;;11.52;6.60;;;;;;;11.83;51.88;101441.00;4963504;28;20211;-71
2023/05/01 04:29:45;;;;;;;8.07;5.22;;;;;;;11.44;52.65;101439.59;4960519;28;20205;-72
2023/05/01 04:32:15;;;;;;;7.75;4.90;;;;;;;11.73;52.04;101447.59;4973662;28;20212;-70
2023/05/01 04:34:44;;;;;;;9.68;6.65;;;;;;;12.14;50.63;101436.00;4957076;28;20214;-70
2023/05/01 04:37:16;;;;;;;10.27;5.43;;;;;;;12.31;50.00;101428.34;4954764;28;20206;-71
2023/05/01 04:39:47;;;;;;;8.27;6.15;;;;;;;12.50;49.27;101428.47;4968323;28;20297;-73
2023/05/01 04:42:16;;;;;;;10.88;6.95;;;;;;;12.78;48.66;101430.25;4951205;28;20204;-72
2023/05/01 04:44:46;;;;;;;8.13;6.77;;;;;;;13.02;47.44;101427.00;4953181;28;20228;-72
2023/05/01 04:47:15;;;;;;;7.70;6.10;;;;;;;13.08;47.01;101427.00;4959184;28;20426;-71
2023/05/01 04:49:44;;;;;;;7.83;6.87;;;;;;;12.53;47.74;101427.25;4957014;28;20438;-74
2023/05/01 04:52:13;;;;;;;9.97;6.00;;;;;;;12.40;48.00;101428.00;4951768;28;20571;-74
2023/05/01 04:54:53;;;;;;;8.97;6.17;;;;;;;12.41;48.59;101417.97;4950410;28;20471;-73
2023/05/01 04:57:24;;;;;;;8.20;5.57;;;;;;;12.01;48.55;101419.63;4965585;28;20411;-69
2023/05/01 04:59:53;;;;;;;9.00;6.13;;;;;;;12.79;47.22;101419.19;4952619;28;20453;-70
2023/05/01 05:02:23;;;;;;;6.70;5.03;;;;;;;13.31;45.46;101414.97;4952948;28;20463;-70
2023/05/01 05:04:53;;;;;;;9.00;5.87;;;;;;;13.16;45.44;101415.13;4966686;28;20474;-69
2023/05/01 05:07:22;;;;;;;8.60;5.33;;;;;;;13.55;44.17;101416.22;4954429;28;20820;-72
2023/05/01 05:10:12;;;;;;;5.67;5.07;;;;;;;14.33;42.41;101415.25;4952247;28;20702;-72
2023/05/01 05:12:43;;;;;;;7.90;4.60;;;;;;;14.23;42.63;101410.25;4966892;28;20499;-72
2023/05/01 05:15:12;;;;;;;6.27;4.70;;;;;;;14.21;42.38;101412.38;4950620;28;20871;-72
2023/05/01 05:17:41;;;;;;;8.03;5.63;;;;;;;13.03;44.34;101412.34;4950703;28;20475;-71
2023/05/01 05:20:11;;;;;;;7.57;5.27;;;;;;;11.66;47.50;101416.88;4954079;28;20446;-72
2023/05/01 05:22:40;;;;;;;9.60;5.97;;;;;;;10.58;50.28;101412.63;4957680;28;20457;-70
2023/05/01 05:25:22;;;;;;;9.40;4.82;;;;;;;9.96;52.57;101407.59;4952940;28;20981;-71
2023/05/01 05:27:51;;;;;;;11.88;5.05;;;;;;;9.44;53.86;101403.03;4950957;28;20209;-72
2023/05/01 05:30:20;;;;;;;10.02;5.00;;;;;;;9.31;54.35;101399.28;4950117;28;20199;-71
2023/05/01 05:32:49;;;;;;;11.55;7.75;;;;;;;9.26;55.20;101399.81;4949701;28;20540;-71
2023/05/01 05:35:19;;;;;;;9.93;5.38;;;;;;;9.16;55.10;101393.81;4965832;28;20202;-72
2023/05/01 05:37:48;;;;;;;9.60;4.78;;;;;;;9.04;55.12;101390.72;4949397;28;20226;-71
2023/05/01 05:40:18;;;;;;;9.13;4.72;;;;;;;8.98;55.13;101391.44;5081184;23;20716;-70
2023/05/01 05:42:57;;;;;;;5.60;4.60;;;;;;;9.03;54.81;101385.50;4990085;28;20201;-71
2023/05/01 05:45:29;;;;;;;11.98;5.88;;;;;;;9.24;54.86;101379.44;4971764;28;20208;-71
2023/05/01 05:47:58;;;;;;;7.25;5.15;;;;;;;9.27;54.59;101381.75;4964968;28;20236;-71
2023/05/01 05:50:29;;;;;;;7.78;5.93;;;;;;;9.25;54.23;101381.94;4972321;28;20208;-71
2023/05/01 05:52:59;;;;;;;6.63;5.18;;;;;;;9.42;53.93;101375.38;4960689;28;20216;-71
2023/05/01 05:55:28;;;;;;;9.07;5.45;;;;;;;9.45;53.50;101376.84;4979736;28;20201;-72
2023/05/01 05:58:04;;;;;;;6.80;4.75;;;;;;;9.55;53.42;101382.84;4969340;28;20235;-71
2023/05/01 06:00:33;;;;;;;8.77;5.40;;;;;;;9.53;53.26;101374.09;4969816;28;20296;-71
2023/05/01 06:03:06;;;;;;;7.28;5.22;;;;;;;9.71;52.44;101376.44;4972379;28;20216;-72
2023/05/01 06:05:36;;;;;;;7.72;4.78;;;;;;;9.92;52.50;101371.97;4981289;28;20671;-71
2023/05/01 06:08:06;;;;;;;6.53;4.07;;;;;;;10.08;51.74;101379.06;4969659;28;20205;-72
2023/05/01 06:10:35;;;;;;;6.13;4.75;;;;;;;10.16;51.33;101380.88;4973421;28;20197;-71
2023/05/01 06:13:07;;;;;;;9.55;3.92;;;;;;;10.14;51.19;101372.91;4977170;28;20594;-71
2023/05/01 06:15:45;;;;;;;8.98;5.75;;;;;;;9.92;51.47;101368.44;4972703;28;20260;-71
2023/05/01 06:18:15;;;;;;;6.27;4.30;;;;;;;10.14;51.42;101370.22;4977743;28;20309;-71
2023/05/01 06:20:46;;;;;;;5.50;4.30;;;;;;;10.26;50.97;101374.13;4965538;28;20899;-71
2023/05/01 06:23:15;;;;;;;7.17;5.07;;;;;;;10.50;50.28;101372.16;4958367;28;20428;-71
2023/05/01 06:25:57;;;;;;;5.90;4.67;;;;;;;10.66;50.54;101366.50;4964815;28;20469;-71
2023/05/01 06:28:28;;;;;;;8.23;5.10;;;;;;;10.83;49.41;101378.78;4969552;28;20846;-71
2023/05/01 06:30:57;;;;;;;6.43;4.27;;;;;;;10.98;49.09;101373.31;4967546;28;20437;-71
2023/05/01 06:33:27;;;;;;;6.10;4.07;;;;;;;11.01;49.22;101371.03;4968969;28;20985;-71
2023/05/01 06:36:08;;;;;;;8.57;4.77;;;;;;;11.20;48.74;101372.25;4970877;28;20447;-71
2023/05/01 06:38:37;;;;;;;6.53;5.27;;;;;;;11.33;47.72;101369.66;4964764;28;20427;-73
2023/05/01 06:41:07;;;;;;;11.63;5.30;;;;;;;11.35;48.49;101367.59;4970779;28;20455;-72
2023/05/01 06:43:37;;;;;;;6.90;4.23;;;;;;;11.34;48.73;101374.03;4977171;28;21009;-72
2023/05/01 06:46:06;;;;;;;6.83;4.70;;;;;;;11.45;48.14;101373.53;4972582;28;20458;-72
2023/05/01 06:48:35;;;;;;;8.40;4.53;;;;;;;11.62;47.79;101372.19;4968512;28;20507;-72
2023/05/01 06:51:04;;;;;;;13.73;6.17;;;;;;;11.87;47.29;101361.75;4974281;28;20460;-71
2023/05/01 06:53:34;;;;;;;9.13;4.90;;;;;;;12.15;46.62;101364.44;4971497;28;20486;-72
2023/05/01 06:56:03;;;;;;;7.63;4.43;;;;;;;12.29;46.10;101360.75;4969587;28;20413;-71
2023/05/01 06:58:33;;;;;;;12.17;4.70;;;;;;;12.50;46.69;101366.03;4972428;28;20431;-72
2023/05/01 07:01:03;;;;;;;9.10;4.83;;;;;;;12.42;46.15;101360.78;4978065;28;20444;-71
2023/05/01 07:03:35;;;;;;;7.17;4.87;;;;;;;12.50;45.39;101362.47;4972602;28;20426;-72
2023/05/01 07:06:09;;;;;;;9.60;4.80;;;;;;;12.66;45.32;101361.28;4965133;28;20503;-71
2023/05/01 07:08:38;;;;;;;5.87;4.30;;;;;;;12.58;45.20;101360.44;4974097;28;20491;-72
2023/05/01 07:11:08;;;;;;;7.20;4.30;;;;;;;12.72;45.61;101360.47;4977671;28;20412;-72
2023/05/01 07:13:37;;;;;;;8.83;4.13;;;;;;;12.84;44.85;101356.94;4980303;28;20849;-72
2023/05/01 07:16:08;;;;;;;7.57;3.73;;;;;;;13.08;45.11;101358.22;4980756;28;20943;-72
2023/05/01 07:18:37;;;;;;;6.47;4.67;;;;;;;13.40;44.44;101349.31;4982740;28;20950;-73
2023/05/01 07:21:08;;;;;;;10.30;4.93;;;;;;;13.75;43.95;101351.75;4984212;28;20485;-73
2023/05/01 07:23:37;;;;;;;6.33;3.80;;;;;;;13.79;43.43;101344.88;4968496;28;20930;-72
2023/05/01 07:26:06;;;;;;;14.40;4.50;;;;;;;13.72;43.10;101347.59;4976612;28;20446;-73
2023/05/01 07:28:36;;;;;;;8.50;4.10;;;;;;;14.20;42.45;101345.34;4980056;28;20409;-73
2023/05/01 07:31:06;;;;;;;6.70;3.97;;;;;;;14.20;42.26;101342.63;4976350;28;20549;-71
2023/05/01 07:33:35;;;;;;;4.60;3.47;;;;;;;14.05;41.93;101342.06;4981836;28;20554;-72
2023/05/01 07:36:05;;;;;;;5.80;4.73;;;;;;;14.04;42.47;101339.56;4965170;28;20444;-72
2023/05/01 07:38:34;;;;;;;6.83;4.10;;;;;;;14.27;41.88;101329.00;4970991;28;20441;-71
2023/05/01 07:41:03;;;;;;;4.80;3.97;;;;;;;14.08;41.94;101336.22;4965496;28;20958;-72
2023/05/01 07:43:32;;;;;;;5.97;4.00;;;;;;;14.30;41.47;101323.97;4970749;28;20862;-71
2023/05/01 07:46:01;;;;;;;5.57;4.10;;;;;;;14.34;41.11;101324.34;4972501;28;20417;-73
2023/05/01 07:48:32;;;;;;;10.20;4.43;;;;;;;14.46;41.24;101327.28;4983670;28;20508;-72
2023/05/01 07:51:03;;;;;;;4.23;3.83;;;;;;;14.71;41.18;101323.59;4973894;28;20465;-72
2023/05/01 07:53:32;;;;;;;11.97;4.83;;;;;;;14.79;40.33;101317.03;4983328;28;20502;-72
2023/05/01 07:56:08;;;;;;;5.40;4.00;;;;;;;15.01;41.07;101323.78;4982610;28;21026;-71
2023/05/01 07:58:39;;;;;;;8.67;4.00;;;;;;;15.07;40.01;101314.72;4977271;28;20975;-73
2023/05/01 08:01:09;;;;;;;6.90;3.70;;;;;;;15.38;39.66;101313.00;4985693;28;20403;-72
2023/05/01 08:03:39;;;;;;;8.80;4.07;;;;;;;15.66;39.66;101299.75;4988321;28;20470;-72
2023/05/01 08:06:08;;;;;;;7.60;3.40;;;;;;;15.69;38.44;101298.44;4985160;28;20403;-71
2023/05/01 08:08:37;;;;;;;9.23;4.83;;;;;;;15.70;38.82;101300.13;4974276;28;20465;-72
2023/05/01 08:11:06;;;;;;;6.40;4.57;;;;;;;15.55;39.12;101297.75;4973447;28;20430;-71
2023/05/01 08:13:35;;;;;;;7.53;3.87;;;;;;;16.00;38.29;101299.16;4982042;28;20902;-71
2023/05/01 08:16:05;;;;;;;4.73;3.80;;;;;;;15.88;38.95;101295.50;4986174;28;20807;-70
2023/05/01 08:18:34;;;;;;;10.33;4.47;;;;;;;16.10;38.53;101298.63;4995949;28;20429;-73
2023/05/01 08:21:04;;;;;;;5.80;3.97;;;;;;;16.04;37.93;101297.63;4985480;28;20411;-70
2023/05/01 08:23:33;;;;;;;9.87;4.50;;;;;;;16.07;38.16;101288.97;4988675;28;20428;-71
2023/05/01 08:26:02;;;;;;;7.67;4.00;;;;;;;16.32;38.16;101296.22;4985263;28;20535;-72
2023/05/01 08:28:33;;;;;;;7.07;3.60;;;;;;;16.36;37.66;101298.25;4980431;28;20409;-71
2023/05/01 08:31:02;;;;;;;7.97;5.17;;;;;;;16.50;37.02;101288.84;4988089;28;20408;-72
2023/05/01 08:33:31;;;;;;;5.27;3.73;;;;;;;16.60;37.12;101288.31;4989229;28;20426;-71
2023/05/01 08:36:00;;;;;;;8.07;4.23;;;;;;;16.73;36.85;101281.81;4979909;28;20461;-70
2023/05/01 08:38:32;;;;;;;6.23;3.70;;;;;;;16.86;36.47;101282.44;4970363;28;21099;-71
2023/05/01 08:41:02;;;;;;;7.60;4.13;;;;;;;17.08;35.88;101284.63;4967862;28;20431;-72
2023/05/01 08:43:32;;;;;;;5.33;3.73;;;;;;;16.91;36.13;101282.59;4978580;28;20489;-72
2023/05/01 08:46:03;;;;;;;8.53;4.97;;;;;;;16.79;36.25;101273.53;4987818;28;20433;-70
2023/05/01 08:48:35;;;;;;;7.50;3.53;;;;;;;16.33;36.41;101271.44;4983971;28;20778;-72
2023/05/01 08:51:05;;;;;;;6.37;3.70;;;;;;;16.61;36.46;101265.38;4974858;28;20937;-72
2023/05/01 08:53:37;;;;;;;5.93;3.23;;;;;;;16.87;36.12;101266.88;4984212;28;20437;-72
2023/05/01 08:56:12;;;;;;;5.17;3.80;;;;;;;16.47;36.23;101267.44;4982735;28;20476;-70
2023/05/01 08:58:44;;;;;;;7.17;4.00;;;;;;;16.76;35.79;101264.94;4971075;28;20447;-72
2023/05/01 09:01:15;;;;;;;5.60;3.20;;;;;;;17.00;36.15;101261.19;4985666;28;20880;-72
2023/05/01 09:03:46;;;;;;;7.27;4.23;;;;;;;16.91;35.97;101255.25;4982816;28;20457;-71
2023/05/01 09:06:16;;;;;;;5.23;3.70;;;;;;;16.93;35.21;101255.84;4970033;28;20497;-71
2023/05/01 09:08:46;;;;;;;6.17;3.27;;;;;;;16.73;35.73;101254.50;4972982;28;20495;-71
2023/05/01 09:11:15;;;;;;;4.20;3.80;;;;;;;16.98;35.48;101241.47;4968613;28;20834;-71
2023/05/01 09:13:44;;;;;;;11.20;3.80;;;;;;;17.08;36.16;101236.25;4974995;28;20461;-71
2023/05/01 09:16:14;;;;;;;7.80;3.90;;;;;;;16.81;35.39;101232.28;4970590;28;21015;-71
2023/05/01 09:18:43;;;;;;;7.63;4.17;;;;;;;16.43;36.47;101230.75;4973785;28;20794;-71
2023/05/01 09:21:12;;;;;;;6.13;3.33;;;;;;;16.52;35.22;101233.97;4968753;28;20939;-71
2023/05/01 09:23:41;;;;;;;8.20;2.90;;;;;;;16.71;34.51;101221.94;4975235;28;20444;-70
2023/05/01 09:26:11;;;;;;;7.10;4.40;;;;;;;17.17;34.77;101218.44;4970548;28;20439;-70
2023/05/01 09:28:41;;;;;;;8.83;5.73;;;;;;;17.53;34.94;101222.78;4967471;28;20499;-71
2023/05/01 09:31:25;;;;;;;5.20;2.90;;;;;;;17.20;34.15;101215.19;4968280;28;20461;-70
2023/05/01 09:33:55;;;;;;;7.53;2.77;;;;;;;17.62;33.95;101210.41;4969690;28;20500;-71
2023/05/01 09:36:25;;;;;;;9.10;3.80;;;;;;;17.89;33.73;101209.91;4964140;28;20981;-70
2023/05/01 09:38:55;;;;;;;5.33;3.07;;;;;;;17.85;34.11;101200.50;4976174;28;20433;-71
2023/05/01 09:41:26;;;;;;;5.10;3.80;;;;;;;17.78;33.87;101201.47;4977175;28;20940;-71
2023/05/01 09:43:56;;;;;;;3.53;3.17;;;;;;;18.17;33.32;101207.16;4971496;28;20523;-71
2023/05/01 09:46:26;;;;;;;4.80;3.80;;;;;;;18.42;33.08;101198.59;4976584;28;20932;-72
2023/05/01 09:48:57;;;;;;;4.30;3.90;;;;;;;18.24;33.69;101191.44;4961627;28;20502;-72
2023/05/01 09:51:28;;;;;;;6.20;3.27;;;;;;;18.59;33.11;101188.50;4970141;28;20438;-76
2023/05/01 09:53:58;;;;;;;13.57;5.63;;;;;;;18.61;33.00;101192.69;4970512;28;20463;-70
2023/05/01 09:56:45;;;;;;;6.80;3.73;;;;;;;18.33;32.69;101175.41;4973809;28;20532;-70
2023/05/01 09:59:19;;;;;;;4.00;3.10;;;;;;;18.50;33.71;101177.09;4971690;28;20898;-71
2023/05/01 10:01:49;;;;;;;5.63;4.30;;;;;;;19.02;33.19;101168.66;4968431;28;20966;-70
2023/05/01 10:04:31;;;;;;;6.80;5.43;;;;;;;19.22;32.36;101171.69;4966582;28;20466;-73
2023/05/01 10:07:13;;;;;;;9.53;3.60;;;;;;;18.77;32.69;101163.63;4960444;28;20969;-70
2023/05/01 10:09:42;;;;;;;7.47;3.17;;;;;;;18.82;32.56;101165.59;4974612;28;20513;-71
2023/05/01 10:12:24;;;;;;;6.00;3.60;;;;;;;19.08;32.93;101154.75;4972704;28;20438;-70
2023/05/01 10:14:54;;;;;;;6.27;3.77;;;;;;;19.10;32.97;101160.00;4970069;28;20468;-69
2023/05/01 10:17:23;;;;;;;6.40;4.43;;;;;;;18.79;32.55;101150.47;4983460;28;20537;-70
2023/05/01 10:19:52;;;;;;;5.13;4.00;;;;;;;18.88;33.06;101156.38;4983241;28;20434;-71
2023/05/01 10:22:22;;;;;;;7.00;4.10;;;;;;;19.04;32.65;101147.28;4973846;28;20448;-70
2023/05/01 10:24:51;;;;;;;5.97;4.33;;;;;;;18.94;32.99;101152.63;4981237;28;20430;-71
2023/05/01 10:27:24;;;;;;;10.57;4.00;;;;;;;18.85;32.84;101143.16;4984258;28;20471;-71
2023/05/01 10:29:54;;;;;;;6.83;5.10;;;;;;;18.66;33.12;101151.66;4969516;28;20434;-71
2023/05/01 10:32:23;;;;;;;6.60;3.93;;;;;;;18.87;33.13;101133.63;4977089;28;20928;-70
2023/05/01 10:34:58;;;;;;;4.33;3.60;;;;;;;19.12;32.77;101133.16;4970263;28;20457;-70
2023/05/01 10:37:42;;;;;;;10.97;5.00;;;;;;;19.24;32.96;101131.13;4981672;28;20409;-71
2023/05/01 10:40:44;;;;;;;8.70;5.10;;;;;;;19.00;33.08;101129.69;4981150;28;20453;-70
2023/05/01 10:43:19;;;;;;;6.47;4.70;;;;;;;18.62;33.25;101120.34;4972975;28;20589;-71
2023/05/01 10:45:49;;;;;;;4.50;3.70;;;;;;;18.53;33.77;101119.09;4968563;28;20519;-72
2023/05/01 10:48:58;;;;;;;12.47;5.47;;;;;;;18.64;33.91;101115.41;4975337;28;20408;-70
2023/05/01 10:51:27;;;;;;;5.40;3.90;;;;;;;18.61;33.60;101109.63;4972125;28;20450;-71
2023/05/01 10:54:25;;;;;;;7.43;4.47;;;;;;;18.78;34.63;101120.59;4975627;28;20431;-71
2023/05/01 10:56:57;;;;;;;9.50;4.20;;;;;;;18.67;34.10;101108.63;4973761;28;20467;-72
2023/05/01 10:59:28;;;;;;;8.80;6.40;;;;;;;18.82;34.23;101100.63;4976525;28;20489;-69
2023/05/01 11:01:57;;;;;;;5.20;4.07;;;;;;;18.76;33.25;101087.09;4977792;28;20927;-72
2023/05/01 11:04:49;;;;;;;7.10;4.27;;;;;;;19.04;33.10;101092.44;4972602;28;20497;-70
2023/05/01 11:07:24;;;;;;;5.60;4.17;;;;;;;19.38;32.77;101082.19;4981456;28;20446;-71
2023/05/01 11:09:57;;;;;;;8.57;4.73;;;;;;;19.60;32.86;101090.44;4990580;28;20439;-71
2023/05/01 11:12:54;;;;;;;5.00;3.97;;;;;;;19.58;32.22;101078.88;4976799;28;20428;-72
2023/05/01 11:15:32;;;;;;;4.53;4.10;;;;;;;19.41;31.93;101079.75;4967339;28;20528;-72
2023/05/01 11:18:02;;;;;;;6.47;4.37;;;;;;;18.87;33.07;101073.28;4973445;28;20490;-72
2023/05/01 11:20:48;;;;;;;7.27;5.20;;;;;;;18.92;33.33;101067.88;4974475;28;20449;-72
2023/05/01 11:23:22;;;;;;;5.90;5.03;;;;;;;18.92;33.89;101053.34;4971436;28;20530;-71
2023/05/01 11:26:02;;;;;;;5.23;4.10;;;;;;;18.44;33.48;101048.47;4974682;28;20431;-73
2023/05/01 11:28:32;;;;;;;9.40;5.20;;;;;;;18.30;34.51;101047.97;4972340;28;20443;-72
2023/05/01 11:31:02;;;;;;;5.70;4.43;;;;;;;18.60;34.09;101048.47;4977810;28;20452;-72
2023/05/01 11:33:31;;;;;;;6.23;3.97;;;;;;;19.00;33.17;101034.53;4985041;28;20483;-72
2023/05/01 11:36:02;;;;;;;7.53;6.03;;;;;;;19.26;33.62;101037.59;4970966;28;20477;-71
2023/05/01 11:38:31;;;;;;;5.73;4.13;;;;;;;19.47;32.21;101029.34;4982229;28;20541;-71
2023/05/01 11:41:03;;;;;;;6.13;4.80;;;;;;;19.28;32.60;101028.00;4994217;23;20486;-73
2023/05/01 11:43:32;;;;;;;6.40;4.20;;;;;;;19.22;32.82;101029.03;4985330;28;20466;-73
2023/05/01 11:46:03;;;;;;;8.53;7.50;;;;;;;19.39;33.05;101018.81;4980003;28;20436;-72
2023/05/01 11:48:32;;;;;;;7.80;5.37;;;;;;;19.60;31.95;101016.31;4984716;28;20809;-74
2023/05/01 11:51:11;;;;;;;8.93;5.00;;;;;;;19.74;31.80;101010.16;4985136;28;20484;-71